createdAt,value
2023-08-22T00:00:32.758Z,87.25
2023-08-22T00:02:34.445Z,88.09
2023-08-22T00:04:37.118Z,88.13
2023-08-22T00:06:38.782Z,87.70
2023-08-22T00:08:40.504Z,87.57
2023-08-22T00:10:42.193Z,87.58
2023-08-22T00:12:44.413Z,87.87
2023-08-22T00:14:46.842Z,87.37
2023-08-22T00:16:49.071Z,87.16
2023-08-22T00:18:50.594Z,87.52
2023-08-22T00:20:52.302Z,87.10
2023-08-22T00:22:54.193Z,87.13
2023-08-22T00:24:55.825Z,87.17
2023-08-22T00:26:58.493Z,87.50
2023-08-22T00:29:00.135Z,88.26
2023-08-22T00:31:01.770Z,87.79
2023-08-22T00:33:03.824Z,88.97
2023-08-22T00:35:05.606Z,89.95
2023-08-22T00:37:07.784Z,89.13
2023-08-22T00:39:09.570Z,88.45
2023-08-22T00:41:11.377Z,89.51
2023-08-22T00:43:12.969Z,88.86
2023-08-22T00:45:14.751Z,88.88
2023-08-22T00:47:17.577Z,88.56
2023-08-22T00:49:19.385Z,87.81
2023-08-22T00:51:21.593Z,88.63
2023-08-22T00:53:23.218Z,90.07
2023-08-22T00:55:25.362Z,88.55
2023-08-22T00:57:27.676Z,87.82
2023-08-22T00:59:30.836Z,87.84
2023-08-22T01:01:32.840Z,88.10
2023-08-22T01:03:35.334Z,88.49
2023-08-22T01:05:43.232Z,89.37
2023-08-22T01:07:56.384Z,88.93
2023-08-22T01:10:14.525Z,88.63
2023-08-22T01:12:41.265Z,88.54
2023-08-22T01:14:49.946Z,88.19
2023-08-22T01:16:52.725Z,88.71
2023-08-22T01:18:54.502Z,88.94
2023-08-22T01:20:59.429Z,90.97
2023-08-22T01:23:01.546Z,90.44
2023-08-22T01:25:03.502Z,89.36
2023-08-22T01:27:08.309Z,88.93
2023-08-22T01:29:14.602Z,89.15
2023-08-22T01:31:34.379Z,89.03
2023-08-22T01:33:40.640Z,88.80
2023-08-22T01:35:49.590Z,90.30
2023-08-22T01:37:54.319Z,90.71
2023-08-22T01:39:57.797Z,90.11
2023-08-22T01:42:00.200Z,90.08
2023-08-22T01:44:04.255Z,90.79
2023-08-22T01:46:08.248Z,91.19
2023-08-22T01:48:09.975Z,90.21
2023-08-22T01:50:12.122Z,90.13
2023-08-22T01:52:13.759Z,90.21
2023-08-22T01:54:15.408Z,89.90
2023-08-22T01:56:16.988Z,90.78
2023-08-22T01:58:19.081Z,90.74
2023-08-22T02:00:20.703Z,89.95
2023-08-22T02:02:22.404Z,92.46
2023-08-22T02:04:24.029Z,90.66
2023-08-22T02:06:25.715Z,89.87
2023-08-22T02:08:27.419Z,89.51
2023-08-22T02:10:28.976Z,89.86
2023-08-22T02:12:30.895Z,92.56
2023-08-22T02:14:32.546Z,91.47
2023-08-22T02:16:34.979Z,91.74
2023-08-22T02:18:36.600Z,91.04
2023-08-22T02:20:38.656Z,90.61
2023-08-22T02:22:41.263Z,91.38
2023-08-22T02:24:43.095Z,90.98
2023-08-22T02:26:44.810Z,92.82
2023-08-22T02:28:46.557Z,92.15
2023-08-22T02:30:48.438Z,92.16
2023-08-22T02:32:50.077Z,92.31
2023-08-22T02:34:51.722Z,94.01
2023-08-22T02:36:53.284Z,93.29
2023-08-22T02:38:55.141Z,94.32
2023-08-22T02:40:56.822Z,93.94
2023-08-22T02:42:58.688Z,94.72
2023-08-22T02:45:00.800Z,93.46
2023-08-22T02:47:02.375Z,92.74
2023-08-22T02:49:04.109Z,93.85
2023-08-22T02:51:06.309Z,92.68
2023-08-22T02:53:10.780Z,92.41
2023-08-22T02:55:14.023Z,91.87
2023-08-22T02:57:15.611Z,91.31
2023-08-22T02:59:17.761Z,92.00
2023-08-22T03:01:19.410Z,92.50
2023-08-22T03:03:21.975Z,91.80
2023-08-22T03:05:24.307Z,91.63
2023-08-22T03:07:26.149Z,91.54
2023-08-22T03:09:27.851Z,91.81
2023-08-22T03:11:30.240Z,91.87
2023-08-22T03:13:32.203Z,91.94
2023-08-22T03:15:33.871Z,92.21
2023-08-22T03:17:36.659Z,92.01
2023-08-22T03:19:39.074Z,94.28
2023-08-22T03:21:40.693Z,93.88
2023-08-22T03:23:42.325Z,93.28
2023-08-22T03:25:45.631Z,92.32
2023-08-22T03:27:47.322Z,92.66
2023-08-22T03:29:49.486Z,92.63
2023-08-22T03:31:51.175Z,92.82
2023-08-22T03:33:53.324Z,93.20
2023-08-22T03:35:56.709Z,94.54
2023-08-22T03:37:58.699Z,93.21
2023-08-22T03:40:02.456Z,93.63
2023-08-22T03:42:04.664Z,95.13
2023-08-22T03:44:06.396Z,99.13
2023-08-22T03:46:11.118Z,96.93
2023-08-22T03:48:13.998Z,95.71
2023-08-22T03:50:15.657Z,96.39
2023-08-22T03:52:17.285Z,97.37
2023-08-22T03:54:19.015Z,98.02
2023-08-22T03:56:20.662Z,97.17
2023-08-22T03:58:23.055Z,98.00
2023-08-22T04:00:25.063Z,97.66
2023-08-22T04:02:27.826Z,96.43
2023-08-22T04:04:29.950Z,95.20
2023-08-22T04:06:31.601Z,96.33
2023-08-22T04:08:33.281Z,95.54
2023-08-22T04:10:36.047Z,95.25
2023-08-22T04:12:37.611Z,98.23
2023-08-22T04:14:39.387Z,98.92
2023-08-22T04:16:41.001Z,99.05
2023-08-22T04:18:42.624Z,99.17
2023-08-22T04:20:44.291Z,97.98
2023-08-22T04:22:46.039Z,97.11
2023-08-22T04:24:48.527Z,97.27
2023-08-22T04:26:50.259Z,97.86
2023-08-22T04:28:52.469Z,97.87
2023-08-22T04:30:59.295Z,98.71
2023-08-22T04:33:02.081Z,97.12
2023-08-22T04:35:04.202Z,97.26
2023-08-22T04:37:08.249Z,95.82
2023-08-22T04:39:11.134Z,93.44
2023-08-22T04:41:13.675Z,90.56
2023-08-22T04:43:26.963Z,87.77
2023-08-22T04:45:28.626Z,85.09
2023-08-22T04:47:30.641Z,85.20
2023-08-22T04:49:32.554Z,84.34
2023-08-22T04:51:34.630Z,82.79
2023-08-22T04:53:36.270Z,81.17
2023-08-22T04:55:37.953Z,79.98
2023-08-22T04:57:39.799Z,79.04
2023-08-22T04:59:41.595Z,78.61
2023-08-22T05:01:43.437Z,78.51
2023-08-22T05:03:46.484Z,78.03
2023-08-22T05:05:48.366Z,77.85
2023-08-22T05:07:50.412Z,76.85
2023-08-22T05:09:52.039Z,76.34
2023-08-22T05:11:54.267Z,76.21
2023-08-22T05:13:56.630Z,75.93
2023-08-22T05:15:58.403Z,75.74
2023-08-22T05:18:00.055Z,75.44
2023-08-22T05:20:01.714Z,74.94
2023-08-22T05:22:04.892Z,74.27
2023-08-22T05:24:06.653Z,74.26
2023-08-22T05:26:08.805Z,74.33
2023-08-22T05:28:10.532Z,74.46
2023-08-22T05:30:12.663Z,73.47
2023-08-22T05:32:14.236Z,73.24
2023-08-22T05:34:16.161Z,73.39
2023-08-22T05:36:17.948Z,73.09
2023-08-22T05:38:19.791Z,72.90
2023-08-22T05:40:21.407Z,72.56
2023-08-22T05:42:24.288Z,74.28
2023-08-22T05:44:26.765Z,76.50
2023-08-22T05:46:29.043Z,74.19
2023-08-22T05:48:31.377Z,73.65
2023-08-22T05:50:33.131Z,74.52
2023-08-22T05:52:34.937Z,74.86
2023-08-22T05:54:37.146Z,73.78
2023-08-22T05:56:40.210Z,74.02
2023-08-22T05:58:42.089Z,78.39
2023-08-22T06:00:44.353Z,75.32
2023-08-22T06:02:48.293Z,76.56
2023-08-22T06:04:50.867Z,82.67
2023-08-22T06:06:52.491Z,82.38
2023-08-22T06:08:54.159Z,81.40
2023-08-22T06:10:55.768Z,81.79
2023-08-22T06:12:57.523Z,81.60
2023-08-22T06:14:59.111Z,81.45
2023-08-22T06:17:00.760Z,81.85
2023-08-22T06:19:02.612Z,82.01
2023-08-22T06:21:04.263Z,82.12
2023-08-22T06:23:06.935Z,82.23
2023-08-22T06:25:09.136Z,82.95
2023-08-22T06:27:10.708Z,82.81
2023-08-22T06:29:12.344Z,82.92
2023-08-22T06:31:13.934Z,84.47
2023-08-22T06:33:17.898Z,86.30
2023-08-22T06:35:21.763Z,85.16
2023-08-22T06:37:23.398Z,83.90
2023-08-22T06:39:24.984Z,82.75
2023-08-22T06:41:27.852Z,82.99
2023-08-22T06:43:29.565Z,82.04
2023-08-22T06:45:31.752Z,80.91
2023-08-22T06:47:33.522Z,80.84
2023-08-22T06:49:36.182Z,79.35
2023-08-22T06:51:37.838Z,78.94
2023-08-22T06:53:39.820Z,79.51
2023-08-22T06:55:42.326Z,77.30
2023-08-22T06:57:43.932Z,79.10
2023-08-22T06:59:45.512Z,80.02
2023-08-22T07:01:47.083Z,79.45
2023-08-22T07:03:58.899Z,79.52
2023-08-22T07:06:08.350Z,77.88
2023-08-22T07:08:09.902Z,78.94
2023-08-22T07:10:13.841Z,78.48
2023-08-22T07:12:17.086Z,78.40
2023-08-22T07:14:18.717Z,78.77
2023-08-22T07:16:20.344Z,79.21
2023-08-22T07:18:22.019Z,77.13
2023-08-22T07:20:23.895Z,77.12
2023-08-22T07:22:25.860Z,77.04
2023-08-22T07:24:27.398Z,76.63
2023-08-22T07:26:29.196Z,74.33
2023-08-22T07:28:30.905Z,73.94
2023-08-22T07:30:35.253Z,75.10
2023-08-22T07:32:36.972Z,73.90
2023-08-22T07:34:38.701Z,72.43
2023-08-22T07:36:40.285Z,71.74
2023-08-22T07:38:41.870Z,75.07
2023-08-22T07:40:43.477Z,72.39
2023-08-22T07:42:45.264Z,71.79
2023-08-22T07:44:46.910Z,71.38
2023-08-22T07:46:48.518Z,72.42
2023-08-22T07:48:50.077Z,72.51
2023-08-22T07:50:51.976Z,71.55
2023-08-22T07:52:53.729Z,71.68
2023-08-22T07:54:55.536Z,72.00
2023-08-22T07:57:08.317Z,74.40
2023-08-22T07:59:14.553Z,73.40
2023-08-22T08:01:16.916Z,75.49
2023-08-22T08:03:18.769Z,74.90
2023-08-22T08:05:21.018Z,74.18
2023-08-22T08:07:22.546Z,73.22
2023-08-22T08:09:34.276Z,73.62
2023-08-22T08:11:36.870Z,74.46
2023-08-22T08:13:38.969Z,73.39
2023-08-22T08:15:42.332Z,73.93
2023-08-22T08:17:44.112Z,74.21
2023-08-22T08:19:46.517Z,75.66
2023-08-22T08:21:48.272Z,74.62
2023-08-22T08:23:49.954Z,74.18
2023-08-22T08:25:51.595Z,77.61
2023-08-22T08:27:53.192Z,74.18
2023-08-22T08:29:54.763Z,72.86
2023-08-22T08:31:57.427Z,71.42
2023-08-22T08:33:59.370Z,70.45
2023-08-22T08:36:00.966Z,69.86
2023-08-22T08:38:02.666Z,68.39
2023-08-22T08:40:07.533Z,70.81
2023-08-22T08:42:13.454Z,69.22
2023-08-22T08:44:16.272Z,69.64
2023-08-22T08:46:18.697Z,69.43
2023-08-22T08:48:22.044Z,69.79
2023-08-22T08:50:24.625Z,69.32
2023-08-22T08:52:27.580Z,67.74
2023-08-22T08:54:29.939Z,64.89
2023-08-22T08:56:31.750Z,69.69
2023-08-22T08:58:33.328Z,66.66
2023-08-22T09:00:35.347Z,67.15
2023-08-22T09:02:37.233Z,66.17
2023-08-22T09:04:38.885Z,64.44
2023-08-22T09:06:40.453Z,65.48
2023-08-22T09:09:02.812Z,64.86
2023-08-22T09:11:05.010Z,64.27
2023-08-22T09:13:06.624Z,64.14
2023-08-22T09:15:10.595Z,64.82
2023-08-22T09:17:16.196Z,62.81
2023-08-22T09:19:17.912Z,63.06
2023-08-22T09:21:19.939Z,62.04
2023-08-22T09:23:29.528Z,62.38
2023-08-22T09:25:40.198Z,62.15
2023-08-22T09:27:41.751Z,61.67
2023-08-22T09:29:43.590Z,60.19
2023-08-22T09:31:45.236Z,60.86
2023-08-22T09:33:48.195Z,60.59
2023-08-22T09:35:56.111Z,59.59
2023-08-22T09:38:06.093Z,57.86
2023-08-22T09:40:11.045Z,58.54
2023-08-22T09:42:12.727Z,60.46
2023-08-22T09:44:15.256Z,60.76
2023-08-22T09:46:18.545Z,57.23
2023-08-22T09:48:25.922Z,61.28
2023-08-22T09:50:29.166Z,60.39
2023-08-22T09:52:31.562Z,60.09
2023-08-22T09:54:34.146Z,60.02
2023-08-22T09:56:35.765Z,58.35
2023-08-22T09:58:38.613Z,58.85
2023-08-22T10:00:40.536Z,59.12
2023-08-22T10:02:44.253Z,59.89
2023-08-22T10:04:47.250Z,57.64
2023-08-22T10:06:52.432Z,54.28
2023-08-22T10:08:56.535Z,58.67
2023-08-22T10:10:59.844Z,55.73
2023-08-22T10:13:04.445Z,54.27
2023-08-22T10:15:07.922Z,57.22
2023-08-22T10:17:16.729Z,55.06
2023-08-22T10:19:20.912Z,53.75
2023-08-22T10:21:24.795Z,54.09
2023-08-22T10:23:52.818Z,54.09
2023-08-22T10:25:54.553Z,52.23
2023-08-22T10:28:04.713Z,52.17
2023-08-22T10:30:17.204Z,53.01
2023-08-22T10:32:22.503Z,53.09
2023-08-22T10:34:24.366Z,53.07
2023-08-22T10:36:26.901Z,48.86
2023-08-22T10:38:28.911Z,50.63
2023-08-22T10:40:32.900Z,50.70
2023-08-22T10:42:34.427Z,52.07
2023-08-22T10:44:38.161Z,52.07
2023-08-22T10:47:00.116Z,50.81
2023-08-22T10:49:04.439Z,52.04
2023-08-22T10:51:07.784Z,49.38
2023-08-22T10:53:26.172Z,46.66
2023-08-22T10:55:27.831Z,47.25
2023-08-22T10:57:37.379Z,48.88
2023-08-22T11:00:00.127Z,49.47
2023-08-22T11:02:02.233Z,48.51
2023-08-22T11:04:06.046Z,49.12
2023-08-22T11:06:12.593Z,50.64
2023-08-22T11:08:15.326Z,50.12
2023-08-22T11:10:19.438Z,50.48
2023-08-22T11:12:22.420Z,50.23
2023-08-22T11:14:23.997Z,48.40
2023-08-22T11:16:25.707Z,50.27
2023-08-22T11:18:28.213Z,49.75
2023-08-22T11:20:29.785Z,50.03
2023-08-22T11:22:33.229Z,49.87
2023-08-22T11:24:35.315Z,42.45
2023-08-22T11:26:36.809Z,43.78
2023-08-22T11:28:38.647Z,45.88
2023-08-22T11:30:40.296Z,46.61
2023-08-22T11:32:41.867Z,45.51
2023-08-22T11:34:43.507Z,46.73
2023-08-22T11:36:45.118Z,46.47
2023-08-22T11:38:49.569Z,44.28
2023-08-22T11:40:51.130Z,43.99
2023-08-22T11:42:53.115Z,43.34
2023-08-22T11:45:06.508Z,43.52
2023-08-22T11:47:12.797Z,44.11
2023-08-22T11:49:23.377Z,45.54
2023-08-22T11:51:24.999Z,48.57
2023-08-22T11:53:30.667Z,48.79
2023-08-22T11:55:33.256Z,48.21
2023-08-22T11:57:36.951Z,47.25
2023-08-22T11:59:41.710Z,45.15
2023-08-22T12:01:43.757Z,44.40
2023-08-22T12:03:45.429Z,46.12
2023-08-22T12:05:49.920Z,44.92
2023-08-22T12:07:51.577Z,45.74
2023-08-22T12:10:04.968Z,45.30
2023-08-22T12:12:13.926Z,45.30
2023-08-22T12:14:16.877Z,45.25
2023-08-22T12:16:18.801Z,43.14
2023-08-22T12:18:31.317Z,42.77
2023-08-22T12:20:33.773Z,44.63
2023-08-22T12:22:35.331Z,42.75
2023-08-22T12:24:37.275Z,42.75
2023-08-22T12:26:38.910Z,45.63
2023-08-22T12:28:40.608Z,45.60
2023-08-22T12:30:42.452Z,46.55
2023-08-22T12:32:45.044Z,45.01
2023-08-22T12:34:46.997Z,43.13
2023-08-22T12:36:48.646Z,43.64
2023-08-22T12:38:50.183Z,45.32
2023-08-22T12:40:51.703Z,45.37
2023-08-22T12:42:53.244Z,48.52
2023-08-22T12:44:55.020Z,45.90
2023-08-22T12:46:58.550Z,46.43
2023-08-22T12:49:00.230Z,44.81
2023-08-22T12:51:02.232Z,43.57
2023-08-22T12:53:10.046Z,44.84
2023-08-22T12:55:11.642Z,43.28
2023-08-22T12:57:13.243Z,42.11
2023-08-22T12:59:14.863Z,44.78
2023-08-22T13:01:17.072Z,41.31
2023-08-22T13:03:19.783Z,41.61
2023-08-22T13:05:21.524Z,42.50
2023-08-22T13:07:23.645Z,41.55
2023-08-22T13:09:25.252Z,41.04
2023-08-22T13:11:26.989Z,39.97
2023-08-22T13:13:28.636Z,39.88
2023-08-22T13:15:31.349Z,39.51
2023-08-22T13:17:33.030Z,38.54
2023-08-22T13:19:34.820Z,39.25
2023-08-22T13:21:36.766Z,36.64
2023-08-22T13:23:38.425Z,37.76
2023-08-22T13:25:41.818Z,39.29
2023-08-22T13:27:44.249Z,39.71
2023-08-22T13:29:46.224Z,37.47
2023-08-22T13:31:48.524Z,37.83
2023-08-22T13:33:50.320Z,38.46
2023-08-22T13:35:51.846Z,38.01
2023-08-22T13:37:53.418Z,38.03
2023-08-22T13:39:55.094Z,38.25
2023-08-22T13:41:56.787Z,38.69
2023-08-22T13:43:58.750Z,36.78
2023-08-22T13:46:00.282Z,38.34
2023-08-22T13:48:04.528Z,37.49
2023-08-22T13:50:07.402Z,38.07
2023-08-22T13:52:09.021Z,37.21
2023-08-22T13:54:10.615Z,36.01
2023-08-22T13:56:14.335Z,35.52
2023-08-22T13:58:16.828Z,34.35
2023-08-22T14:00:18.775Z,35.38
2023-08-22T14:02:20.733Z,34.75
2023-08-22T14:04:22.440Z,34.97
2023-08-22T14:06:24.028Z,36.87
2023-08-22T14:08:25.582Z,36.02
2023-08-22T14:10:27.126Z,38.04
2023-08-22T14:12:28.627Z,37.33
2023-08-22T14:14:30.625Z,35.09
2023-08-22T14:16:32.969Z,33.94
2023-08-22T14:18:34.828Z,34.90
2023-08-22T14:20:36.486Z,34.71
2023-08-22T14:22:37.976Z,34.35
2023-08-22T14:24:39.577Z,35.79
2023-08-22T14:26:41.059Z,36.41
2023-08-22T14:28:42.850Z,36.20
2023-08-22T14:30:44.764Z,35.05
2023-08-22T14:32:46.354Z,34.99
2023-08-22T14:34:47.883Z,33.89
2023-08-22T14:36:49.527Z,34.15
2023-08-22T14:38:52.041Z,37.12
2023-08-22T14:40:55.782Z,33.43
2023-08-22T14:42:57.327Z,34.22
2023-08-22T14:44:58.862Z,34.95
2023-08-22T14:47:00.778Z,35.27
2023-08-22T14:49:02.906Z,35.90
2023-08-22T14:51:04.527Z,36.86
2023-08-22T14:53:06.078Z,36.43
2023-08-22T14:55:07.745Z,36.25
2023-08-22T14:57:11.015Z,35.18
2023-08-22T14:59:12.836Z,33.28
2023-08-22T15:01:15.609Z,35.41
2023-08-22T15:03:17.850Z,34.48
2023-08-22T15:05:19.529Z,33.00
2023-08-22T15:07:22.499Z,33.99
2023-08-22T15:09:24.300Z,34.82
2023-08-22T15:11:27.147Z,34.14
2023-08-22T15:13:32.200Z,35.29
2023-08-22T15:15:36.371Z,34.67
2023-08-22T15:17:38.247Z,33.35
2023-08-22T15:19:39.895Z,34.78
2023-08-22T15:21:41.538Z,36.18
2023-08-22T15:23:44.354Z,35.45
2023-08-22T15:25:50.977Z,35.71
2023-08-22T15:27:52.548Z,36.07
2023-08-22T15:29:54.066Z,34.68
2023-08-22T15:31:55.910Z,35.10
2023-08-22T15:33:57.713Z,34.99
2023-08-22T15:36:00.698Z,35.34
2023-08-22T15:38:02.387Z,34.97
2023-08-22T15:40:08.136Z,35.52
2023-08-22T15:42:09.950Z,37.70
2023-08-22T15:44:11.592Z,37.64
2023-08-22T15:46:13.756Z,38.94
2023-08-22T15:48:16.729Z,38.60
2023-08-22T15:50:18.647Z,38.78
2023-08-22T15:52:30.963Z,38.21
2023-08-22T15:54:40.832Z,39.79
2023-08-22T15:56:42.434Z,38.75
2023-08-22T15:58:44.195Z,39.61
2023-08-22T16:00:45.833Z,41.37
2023-08-22T16:02:48.032Z,41.08
2023-08-22T16:04:49.697Z,41.76
2023-08-22T16:06:51.168Z,42.09
2023-08-22T16:08:53.541Z,43.18
2023-08-22T16:10:55.196Z,43.21
2023-08-22T16:12:56.794Z,42.05
2023-08-22T16:14:58.366Z,42.30
2023-08-22T16:17:00.637Z,42.75
2023-08-22T16:19:02.218Z,43.39
2023-08-22T16:21:03.802Z,43.73
2023-08-22T16:23:05.380Z,42.69
2023-08-22T16:25:07.616Z,43.58
2023-08-22T16:27:10.678Z,43.95
2023-08-22T16:29:12.394Z,44.61
2023-08-22T16:31:13.998Z,45.15
2023-08-22T16:33:15.745Z,45.77
2023-08-22T16:35:17.689Z,45.54
2023-08-22T16:37:19.309Z,45.51
2023-08-22T16:39:21.001Z,46.10
2023-08-22T16:41:23.057Z,44.88
2023-08-22T16:43:25.463Z,44.35
2023-08-22T16:45:27.047Z,46.89
2023-08-22T16:47:28.592Z,45.53
2023-08-22T16:49:30.133Z,46.74
2023-08-22T16:51:32.101Z,47.46
2023-08-22T16:53:40.182Z,46.77
2023-08-22T16:55:43.796Z,46.79
2023-08-22T16:57:46.255Z,48.15
2023-08-22T16:59:48.238Z,47.93
2023-08-22T17:01:50.867Z,48.59
2023-08-22T17:03:54.034Z,47.77
2023-08-22T17:05:55.984Z,47.23
2023-08-22T17:07:57.566Z,47.67
2023-08-22T17:09:59.194Z,48.22
2023-08-22T17:12:00.704Z,47.70
2023-08-22T17:14:02.898Z,48.38
2023-08-22T17:16:05.037Z,48.62
2023-08-22T17:18:06.788Z,48.93
2023-08-22T17:20:09.932Z,49.05
2023-08-22T17:22:11.529Z,48.60
2023-08-22T17:24:14.404Z,49.17
2023-08-22T17:26:16.834Z,50.33
2023-08-22T17:28:18.865Z,50.19
2023-08-22T17:30:20.796Z,49.60
2023-08-22T17:32:22.477Z,50.22
2023-08-22T17:34:24.056Z,50.17
2023-08-22T17:36:26.009Z,50.58
2023-08-22T17:38:27.596Z,51.33
2023-08-22T17:40:29.164Z,50.72
2023-08-22T17:42:31.710Z,50.90
2023-08-22T17:44:33.296Z,51.52
2023-08-22T17:46:34.932Z,52.11
2023-08-22T17:48:36.498Z,52.85
2023-08-22T17:50:38.066Z,52.52
2023-08-22T17:52:39.691Z,52.35
2023-08-22T17:54:41.472Z,53.05
2023-08-22T17:56:43.313Z,52.83
2023-08-22T17:58:46.543Z,54.56
2023-08-22T18:00:52.829Z,54.94
2023-08-22T18:02:55.185Z,55.35
2023-08-22T18:04:56.964Z,55.73
2023-08-22T18:06:58.524Z,55.81
2023-08-22T18:09:01.556Z,55.29
2023-08-22T18:11:03.706Z,56.26
2023-08-22T18:13:05.577Z,56.52
2023-08-22T18:15:07.493Z,57.62
2023-08-22T18:17:09.347Z,56.54
2023-08-22T18:19:11.318Z,58.00
2023-08-22T18:21:14.059Z,58.66
2023-08-22T18:23:15.664Z,59.37
2023-08-22T18:25:17.522Z,59.62
2023-08-22T18:27:19.083Z,60.01
2023-08-22T18:29:20.630Z,58.69
2023-08-22T18:31:22.753Z,60.03
2023-08-22T18:33:24.973Z,60.02
2023-08-22T18:35:26.625Z,59.75
2023-08-22T18:37:28.203Z,59.26
2023-08-22T18:39:29.795Z,58.08
2023-08-22T18:41:31.324Z,58.54
2023-08-22T18:43:32.891Z,57.54
2023-08-22T18:45:35.113Z,58.49
2023-08-22T18:47:36.701Z,58.31
2023-08-22T18:49:38.264Z,57.67
2023-08-22T18:51:40.330Z,58.13
2023-08-22T18:53:41.883Z,56.92
2023-08-22T18:55:43.422Z,57.12
2023-08-22T18:57:45.279Z,58.00
2023-08-22T18:59:47.620Z,58.34
2023-08-22T19:01:49.207Z,59.14
2023-08-22T19:03:51.079Z,59.18
2023-08-22T19:05:53.602Z,58.79
2023-08-22T19:07:55.152Z,59.45
2023-08-22T19:09:56.694Z,59.54
2023-08-22T19:11:58.268Z,59.67
2023-08-22T19:13:59.855Z,59.92
2023-08-22T19:16:01.895Z,60.49
2023-08-22T19:18:04.164Z,60.53
2023-08-22T19:20:06.072Z,60.19
2023-08-22T19:22:09.305Z,61.12
2023-08-22T19:24:12.100Z,61.12
2023-08-22T19:26:13.644Z,61.01
2023-08-22T19:28:15.192Z,60.35
2023-08-22T19:30:18.582Z,60.94
2023-08-22T19:32:35.028Z,60.99
2023-08-22T19:34:41.768Z,62.30
2023-08-22T19:36:43.313Z,62.43
2023-08-22T19:38:44.858Z,63.03
2023-08-22T19:40:50.158Z,64.08
2023-08-22T19:42:51.730Z,64.23
2023-08-22T19:44:54.831Z,63.91
2023-08-22T19:46:57.830Z,64.19
2023-08-22T19:48:59.857Z,63.53
2023-08-22T19:51:04.014Z,64.56
2023-08-22T19:53:06.091Z,64.84
2023-08-22T19:55:08.302Z,65.03
2023-08-22T19:57:10.499Z,64.88
2023-08-22T19:59:12.191Z,64.98
2023-08-22T20:01:13.785Z,64.99
2023-08-22T20:03:15.436Z,65.72
2023-08-22T20:05:17.681Z,65.51
2023-08-22T20:07:19.296Z,66.99
2023-08-22T20:09:21.386Z,67.63
2023-08-22T20:11:23.376Z,68.20
2023-08-22T20:13:25.221Z,68.26
2023-08-22T20:15:26.821Z,68.02
2023-08-22T20:17:28.505Z,68.59
2023-08-22T20:19:30.116Z,68.34
2023-08-22T20:21:31.713Z,68.59
2023-08-22T20:23:33.368Z,68.23
2023-08-22T20:25:37.414Z,67.85
2023-08-22T20:27:39.015Z,69.02
2023-08-22T20:29:40.661Z,69.20
2023-08-22T20:31:42.377Z,69.49
2023-08-22T20:33:44.842Z,69.40
2023-08-22T20:35:50.121Z,69.56
2023-08-22T20:37:51.975Z,69.38
2023-08-22T20:39:53.688Z,69.16
2023-08-22T20:41:58.137Z,68.99
2023-08-22T20:43:59.929Z,69.08
2023-08-22T20:46:02.268Z,68.73
2023-08-22T20:48:04.196Z,68.50
2023-08-22T20:50:06.209Z,68.25
2023-08-22T20:52:07.805Z,68.95
2023-08-22T20:54:09.671Z,68.46
2023-08-22T20:56:11.342Z,68.71
2023-08-22T20:58:12.911Z,68.92
2023-08-22T21:00:16.470Z,69.22
2023-08-22T21:02:18.059Z,69.35
2023-08-22T21:04:19.692Z,68.42
2023-08-22T21:06:21.292Z,68.20
2023-08-22T21:08:23.182Z,68.74
2023-08-22T21:10:24.831Z,69.42
2023-08-22T21:12:26.546Z,69.63
2023-08-22T21:14:32.204Z,72.07
2023-08-22T21:16:34.352Z,72.53
2023-08-22T21:18:36.574Z,72.97
2023-08-22T21:20:38.223Z,72.53
2023-08-22T21:22:40.391Z,73.40
2023-08-22T21:24:45.548Z,73.23
2023-08-22T21:26:47.781Z,72.59
2023-08-22T21:28:49.427Z,72.30
2023-08-22T21:30:52.498Z,72.25
2023-08-22T21:32:54.275Z,73.57
2023-08-22T21:34:55.974Z,74.23
2023-08-22T21:36:57.942Z,75.12
2023-08-22T21:38:59.693Z,74.78
2023-08-22T21:41:02.441Z,74.79
2023-08-22T21:43:04.145Z,74.61
2023-08-22T21:45:15.392Z,74.34
2023-08-22T21:47:16.956Z,74.16
2023-08-22T21:49:18.997Z,75.87
2023-08-22T21:51:21.213Z,77.44
2023-08-22T21:53:22.946Z,76.62
2023-08-22T21:55:24.493Z,76.33
2023-08-22T21:57:26.401Z,76.48
2023-08-22T21:59:28.249Z,78.81
2023-08-22T22:01:30.621Z,78.36
2023-08-22T22:03:32.355Z,77.21
2023-08-22T22:05:34.148Z,77.04
2023-08-22T22:07:35.869Z,76.58
2023-08-22T22:09:37.457Z,77.05
2023-08-22T22:11:38.997Z,76.55
2023-08-22T22:13:41.186Z,78.28
2023-08-22T22:15:42.830Z,76.93
2023-08-22T22:17:44.447Z,77.08
2023-08-22T22:19:46.070Z,76.80
2023-08-22T22:21:47.739Z,79.30
2023-08-22T22:23:49.392Z,80.65
2023-08-22T22:26:00.649Z,80.61
2023-08-22T22:28:02.281Z,81.84
2023-08-22T22:30:04.897Z,80.76
2023-08-22T22:32:06.552Z,80.70
2023-08-22T22:34:08.180Z,79.75
2023-08-22T22:36:10.838Z,79.28
2023-08-22T22:38:12.511Z,78.89
2023-08-22T22:40:14.200Z,81.40
2023-08-22T22:42:15.724Z,81.11
2023-08-22T22:44:17.720Z,79.86
2023-08-22T22:46:19.302Z,80.54
2023-08-22T22:48:20.860Z,81.78
2023-08-22T22:50:22.426Z,81.79
2023-08-22T22:52:23.975Z,84.02
2023-08-22T22:54:25.690Z,84.45
2023-08-22T22:56:27.347Z,83.17
2023-08-22T22:58:29.259Z,82.24
2023-08-22T23:00:30.832Z,83.47
2023-08-22T23:02:32.857Z,82.78
2023-08-22T23:04:34.465Z,82.37
2023-08-22T23:06:36.295Z,81.79
2023-08-22T23:08:37.940Z,82.37
2023-08-22T23:10:39.658Z,82.37
2023-08-22T23:12:41.681Z,82.58
2023-08-22T23:14:43.354Z,81.60
2023-08-22T23:16:44.982Z,82.01
2023-08-22T23:18:46.561Z,82.81
2023-08-22T23:20:48.308Z,81.65
2023-08-22T23:22:50.666Z,81.69
2023-08-22T23:24:52.215Z,81.83
2023-08-22T23:26:53.758Z,80.59
2023-08-22T23:28:55.306Z,80.66
2023-08-22T23:30:56.902Z,80.54
2023-08-22T23:32:58.518Z,80.13
2023-08-22T23:35:02.077Z,79.71
2023-08-22T23:37:03.982Z,80.00
2023-08-22T23:39:05.760Z,79.96
2023-08-22T23:41:07.317Z,80.50
2023-08-22T23:43:08.993Z,81.09
2023-08-22T23:45:10.702Z,80.84
2023-08-22T23:47:13.160Z,81.77
2023-08-22T23:49:14.708Z,81.18
2023-08-22T23:51:17.646Z,81.11
2023-08-22T23:53:20.494Z,81.02
2023-08-22T23:55:22.349Z,82.25
2023-08-22T23:57:23.933Z,82.95
2023-08-22T23:59:25.484Z,82.35
